Tiempo atmosférico en la estación meteorológica de Calasparra, Murcia (394 m.)



Fecha
DESCASC
Temp. máxima en grados centígrados (hora)
DESCASC
Temp. mínima en grados centígrados (hora)
DESCASC
Temp. media en grados centígrados
DESCASC
Racha de viento máxima en m/sg (hora)
DESCASC
Velocidad máxima media en intervalos de 10 minutos(hora)
DESCASC
Precipitaciones diarias en mm
DESCASC
Precipitaciones de 00:00 a 06:00 en mm
DESCASC
Precipitaciones de 06:00 a 12:00 en mm
DESCASC
Precipitaciones de 12:00 a 18:00 en mm
DESCASC
Precipitaciones de 18:00 a 24:00 en mm
DESCASC
18-01-2018 15.7 (16:00) 4.1 (04:30) 9.9 6.11 (16:40) 3.61 (16:40) 0 0 0 0 0
17-01-2018 19.4 (15:30) 2.7 (08:30) 11 7.5 (14:30) 4.72 (14:40) 0 0 0 0 0
16-01-2018 18.2 (16:10) 0.7 (08:30) 9.5 3.61 (20:20) 2.5 (23:00) 0 0 0 0 0
15-01-2018 12.2 (15:50) 4.6 (23:30) 8.4 6.39 (01:40) 4.17 (01:40) 5 4.8 0.2 0 0
14-01-2018 11.9 (15:10) 3.7 (00:00) 7.8 7.22 (16:10) 3.89 (16:10) 7.2 0 0 2 5.2
13-01-2018 11.4 (16:10) 1.2 (00:00) 6.3 3.33 (12:00) 2.22 (05:10) 0 0 0 0 0
12-01-2018 14.6 (15:20) 4.4 (00:00) 9.5 9.17 (11:20) 4.72 (11:10) 0 0 0 0 0
11-01-2018 12 (14:30) 7.1 (00:00) 9.5 16.11 (11:20) 8.61 (10:20) 0.2 0 0 0.2 0
10-01-2018 15.4 (15:40) 4.2 (00:00) 9.8 10.56 (15:30) 5.83 (14:50) 1.6 1.6 0 0 0
09-01-2018 10.4 (16:10) -0.9 (-00:0) 4.7 3.06 (19:30) 1.94 (05:10) 0.2 0 0 0 0.2
08-01-2018 11.4 (15:20) -1.1 (-00:0) 5.1 3.89 (13:00) 2.5 (08:00) 0 0 0 0 0
07-01-2018 10.4 (15:10) 1.7 (00:00) 6 7.22 (15:50) 3.89 (15:50) 0.2 0.2 0 0 0
06-01-2018 10 (15:50) 2.7 (00:00) 6.4 11.11 (17:20) 6.11 (17:20) 9.4 0 0 9.2 0.2
05-01-2018 17.9 (14:40) 4.5 (00:00) 11.2 6.11 (17:10) 3.89 (17:00) 0 0 0 0 0
04-01-2018 21.7 (15:00) 6 (07:40) 13.9 6.11 (16:50) 3.06 (15:40) 0 0 0 0 0
03-01-2018 20.6 (15:00) 6.8 (00:00) 13.7 8.33 (15:10) 5.28 (16:00) 0 0 0 0 0
02-01-2018 19.2 (15:00) 3.2 (00:00) 11.2 11.11 (12:30) 5.83 (14:10) 0 0 0 0 0
01-01-2018 19.2 (15:00) 4.5 (00:00) 11.9 9.17 (16:40) 5.28 (15:20) 0 0 0 0 0
31-12-2017 16.4 (16:40) 4.9 (00:00) 10.6 11.67 (22:50) 6.67 (22:50) 0 0 0 0 0
30-12-2017 21.2 (15:40) 7.5 (00:00) 14.4 5.28 (13:30) 3.06 (13:40) 0 0 0 0 0
29-12-2017 20.1 (14:40) 12 (00:00) 16.1 13.33 (13:00) 7.22 (13:30) 0 0 0 0 0
28-12-2017 19.1 (15:30) 8.6 (00:00) 13.9 13.61 (16:00) 6.94 (13:50) 0 0 0 0 0
27-12-2017 15.1 (13:00) 6.9 (00:00) 11 13.61 (16:50) 7.5 (15:50) 0.8 0 0.8 0 0
26-12-2017 14.3 (13:20) 4.9 (00:00) 9.6 10.83 (16:40) 6.11 (16:40) 0 0 0 0 0
25-12-2017 15.7 (15:40) 2.9 (00:00) 9.3 3.89 (17:10) 2.78 (19:00) 0 0 0 0 0
24-12-2017 15.2 (13:50) 5.2 (00:00) 10.2 6.67 (16:00) 4.17 (16:00) 0 0 0 0 0

Gráficas

Temp. máximas Temp. mínimas Temp. medias Precipitaciones Rachas de viento máximas Velocidades máximas media en intervalos de 10 minutos

Datos horarios

Fecha y hora oficial Temperatura (ºC) Velocidad del viento (km/h) Dirección del viento Racha (km/h) Dirección de racha Precipitación (mm) Presión (hPa) Tendencia (hPa) Humedad (%)
2018-01-22 23:00:00 13.2 6 Noroeste 10 Noroeste 0 -- -- 54
2018-01-22 22:00:00 14.1 10 Noroeste 14 Noroeste 0 -- -- 51
2018-01-22 21:00:00 14.4 3 Sur 9 Sudoeste 0 -- -- 51
2018-01-22 20:00:00 15.6 6 Sur 9 Sudoeste 0 -- -- 51
2018-01-22 19:00:00 19.3 7 Sudoeste 11 Sudoeste 0 -- -- 40
2018-01-22 18:00:00 21.6 2 Sur 5 Oeste 0 -- -- 34
2018-01-22 17:00:00 23 2 Este 14 Norte 0 -- -- 33
2018-01-22 16:00:00 23.4 5 Nordeste 15 Nordeste 0 -- -- 33
2018-01-22 15:00:00 22.3 7 Norte 13 Nordeste 0 -- -- 34
2018-01-22 14:00:00 20.4 4 Nordeste 12 Este 0 -- -- 40
2018-01-22 13:00:00 18.6 4 Este 8 Este 0 -- -- 44
2018-01-22 12:00:00 16.3 3 Norte 8 Noroeste 0 -- -- 48
2018-01-22 11:00:00 14 3 Norte 6 Norte 0 -- -- 56
2018-01-22 10:00:00 11.3 4 Sur 9 Sudoeste 0 -- -- 63
2018-01-22 09:00:00 8.1 6 Sur 10 Sur 0 -- -- 76
2018-01-22 08:00:00 8.2 5 Sur 10 Sur 0 -- -- 74
2018-01-22 07:00:00 8.9 8 Sudoeste 11 Sudoeste 0 -- -- 71
2018-01-22 06:00:00 10.5 5 Sudoeste 9 Sur 0 -- -- 65
2018-01-22 05:00:00 11.8 9 Oeste 13 Oeste 0 -- -- 62
2018-01-22 04:00:00 11.7 7 Sudoeste 10 Sudoeste 0 -- -- 63
2018-01-22 03:00:00 12.5 5 Oeste 9 Oeste 0 -- -- 60
2018-01-22 02:00:00 12.4 5 Noroeste 9 Noroeste 0 -- -- 61
2018-01-22 01:00:00 12.9 4 Noroeste 11 Noroeste 0 -- -- 59
2018-01-22 00:00:00 13.2 7 Noroeste 12 Noroeste 0 -- -- 59
2018-01-21 23:00:00 13.9 0 Calma 9 Nordeste 0 -- -- 56
2018-01-21 22:00:00 14.2 4 Nordeste 9 Nordeste 0 -- -- 56
2018-01-21 21:00:00 15.3 5 Noroeste 14 Oeste 0 -- -- 52
2018-01-21 20:00:00 16.1 6 Oeste 11 Oeste 0 -- -- 50
2018-01-21 19:00:00 16.6 6 Oeste 16 Noroeste 0 -- -- 49
2018-01-21 18:00:00 18.4 6 Noroeste 27 Noroeste 0 -- -- 44
2018-01-21 17:00:00 20.2 17 Noroeste 41 Noroeste 0 -- -- 40
2018-01-21 16:00:00 20.8 23 Noroeste 45 Noroeste 0 -- -- 38
2018-01-21 15:00:00 21.3 22 Norte 42 Noroeste 0 -- -- 36
2018-01-21 14:00:00 20.9 21 Norte 38 Noroeste 0 -- -- 36
2018-01-21 13:00:00 19.8 21 Noroeste 36 Noroeste 0 -- -- 38
2018-01-21 12:00:00 18.6 19 Noroeste 35 Noroeste 0 -- -- 40
2018-01-21 11:00:00 17.2 10 Norte 27 Oeste 0 -- -- 43
2018-01-21 10:00:00 13.8 9 Noroeste 15 Noroeste 0 -- -- 49
2018-01-21 09:00:00 12 8 Noroeste 18 Norte 0 -- -- 52
2018-01-21 08:00:00 11.8 9 Norte 14 Norte 0 -- -- 49
2018-01-21 07:00:00 10.9 6 Noroeste 13 Norte 0 -- -- 50
2018-01-21 06:00:00 10.7 2 Norte 13 Oeste 0 -- -- 50
2018-01-21 05:00:00 11.5 10 Oeste 16 Oeste 0 -- -- 49
2018-01-21 04:00:00 11.7 11 Oeste 17 Oeste 0 -- -- 48
2018-01-21 03:00:00 11.5 10 Noroeste 17 Noroeste 0 -- -- 51
2018-01-21 02:00:00 11.7 8 Noroeste 14 Noroeste 0 -- -- 48
2018-01-21 01:00:00 11.7 6 Oeste 12 Oeste 0 -- -- 45
2018-01-21 00:00:00 12.1 8 Oeste 16 Noroeste 0 -- -- 44
2018-01-20 23:00:00 10.7 6 Sur 10 Sur 0 -- -- 46
2018-01-20 22:00:00 12.5 0 Calma 9 Oeste 0 -- -- 40
2018-01-20 21:00:00 12.5 5 Sudoeste 14 Oeste 0 -- -- 39
2018-01-20 20:00:00 14.5 8 Oeste 15 Oeste 0 -- -- 36
2018-01-20 19:00:00 15.2 5 Oeste 14 Oeste 0 -- -- 33
2018-01-20 18:00:00 17 8 Oeste 21 Oeste 0 -- -- 31
2018-01-20 17:00:00 18.8 12 Noroeste 25 Oeste 0 -- -- 30
2018-01-20 16:00:00 19.9 12 Oeste 31 Oeste 0 -- -- 25
2018-01-20 15:00:00 19.9 12 Noroeste 25 Norte 0 -- -- 24
2018-01-20 14:00:00 19 12 Noroeste 27 Noroeste 0 -- -- 26
2018-01-20 13:00:00 16 3 Norte 8 Nordeste 0 -- -- 44
2018-01-20 12:00:00 14.7 2 Este 6 Sur 0 -- -- 46
2018-01-20 11:00:00 11.5 3 Sudeste 10 Sur 0 -- -- 59
2018-01-20 10:00:00 8.2 7 Sur 12 Sur 0 -- -- 68
2018-01-20 09:00:00 5 6 Sur 12 Sur 0 -- -- 76
2018-01-20 08:00:00 4.5 8 Sur 10 Sur 0 -- -- 79
2018-01-20 07:00:00 5.6 8 Sur 11 Sudoeste 0 -- -- 74
2018-01-20 06:00:00 5.9 3 Sudeste 10 Oeste 0 -- -- 74
2018-01-20 05:00:00 6.2 3 Sudoeste 12 Sur 0 -- -- 73
2018-01-20 04:00:00 8.9 7 Oeste 11 Oeste 0 -- -- 63
2018-01-20 03:00:00 8.7 0 Calma 5 Noroeste 0 -- -- 63
2018-01-20 02:00:00 9.1 3 Oeste 16 Oeste 0 -- -- 62
2018-01-20 01:00:00 9.6 13 Oeste 17 Oeste 0 -- -- 61
2018-01-20 00:00:00 9.3 0 Calma 9 Oeste 0 -- -- 63
2018-01-19 23:00:00 6.6 8 Sur 12 Sur 0 -- -- 78
2018-01-19 22:00:00 7.9 8 Sur 10 Sur 0 -- -- 73
2018-01-19 21:00:00 8.5 6 Sur 10 Sur 0 -- -- 72
2018-01-19 20:00:00 10.7 5 Sur 8 Sur 0 -- -- 65
2018-01-19 19:00:00 12 5 Sur 9 Sur 0 -- -- 62
2018-01-19 18:00:00 13.8 6 Sur 10 Sudeste 0 -- -- 56
2018-01-19 17:00:00 15 4 Sudeste 8 Sudeste 0 -- -- 52
2018-01-19 16:00:00 14.8 2 Este 6 Noroeste 0 -- -- 54
2018-01-19 15:00:00 13.8 4 Norte 8 Nordeste 0 -- -- 59
2018-01-19 14:00:00 12.8 0 Calma 6 Sudeste 0 -- -- 62
2018-01-19 13:00:00 11.4 4 Sudeste 6 Sudeste 0 -- -- 66
2018-01-19 12:00:00 10.2 2 Sur 10 Noroeste 0 -- -- 72
2018-01-19 11:00:00 8.6 6 Noroeste 9 Noroeste 0 -- -- 76
2018-01-19 10:00:00 7 4 Sudoeste 9 Sur 0 -- -- 84
2018-01-19 09:00:00 6.1 4 Sur 7 Sudoeste 0 -- -- 86
2018-01-19 08:00:00 6.2 5 Sudoeste 7 Sudoeste 0 -- -- 85
2018-01-19 07:00:00 7.2 5 Sudoeste 10 Oeste 0 -- -- 80
2018-01-19 06:00:00 6.8 3 Oeste 9 Sudoeste 0 -- -- 83
2018-01-19 05:00:00 7.1 4 Oeste 10 Noroeste 0 -- -- 84
2018-01-19 04:00:00 7.2 5 Noroeste 9 Oeste 0 -- -- 83
2018-01-19 03:00:00 6.5 3 Noroeste 8 Oeste 0 -- -- 86
2018-01-19 02:00:00 7.7 2 Sur 4 Sudoeste 0 -- -- 85
2018-01-19 01:00:00 7.7 0 Calma 4 Noroeste 0 -- -- 84
2018-01-19 00:00:00 8.6 2 Sur 8 Sur 0 -- -- 82
2018-01-18 23:00:00 9 5 Sur 6 Sur 0 -- -- 79
2018-01-18 22:00:00 9.7 2 Nordeste 11 Sur 0 -- -- 77
2018-01-18 21:00:00 10.2 6 Sur 13 Sur 0 -- -- 74
2018-01-18 20:00:00 11.2 3 Sudeste 10 Sudeste 0 -- -- 67
2018-01-18 19:00:00 11.7 6 Sudeste 16 Sudeste 0 -- -- 64
2018-01-18 18:00:00 13.1 9 Sudeste 18 Sudeste 0 -- -- 59
2018-01-18 17:00:00 14.6 12 Sudeste 22 Sudeste 0 -- -- 53
2018-01-18 16:00:00 15.7 6 Sudeste 14 Sudeste 0 -- -- 48
2018-01-18 15:00:00 15.4 4 Este 10 Este 0 -- -- 51
2018-01-18 14:00:00 15.1 3 Sudeste 9 Este 0 -- -- 51
2018-01-18 13:00:00 14.4 2 Sudeste 8 Sur 0 -- -- 54
2018-01-18 12:00:00 12.2 3 Nordeste 10 Noroeste 0 -- -- 65
2018-01-18 11:00:00 9.2 7 Noroeste 11 Noroeste 0 -- -- 67
2018-01-18 10:00:00 7.6 6 Noroeste 11 Noroeste 0 -- -- 69
2018-01-18 09:00:00 5.4 5 Noroeste 13 Oeste 0 -- -- 79
2018-01-18 08:00:00 5.7 3 Oeste 8 Oeste 0 -- -- 78
2018-01-18 07:00:00 5.4 3 Sur 9 Sudeste 0 -- -- 77
2018-01-18 06:00:00 5.1 2 Sudoeste 8 Sur 0 -- -- 78
2018-01-18 05:00:00 4.4 3 Sudoeste 6 Sudoeste 0 -- -- 79
2018-01-18 04:00:00 4.5 5 Sudoeste 8 Sudoeste 0 -- -- 77
2018-01-18 03:00:00 4.6 4 Sur 8 Sur 0 -- -- 76
2018-01-18 02:00:00 5.7 4 Sur 10 Sur 0 -- -- 72
2018-01-18 01:00:00 6 6 Sur 10 Sudoeste 0 -- -- 73
2018-01-18 00:00:00 6.6 6 Sur 14 Sur 0 -- -- 70
2018-01-17 23:00:00 7.7 6 Sur 12 Sudoeste 0 -- -- 66
2018-01-17 22:00:00 10.7 6 Sur 12 Sur 0 -- -- 58
2018-01-17 21:00:00 12.6 9 Noroeste 12 Noroeste 0 -- -- 51
2018-01-17 20:00:00 13.5 9 Noroeste 18 Oeste 0 -- -- 48
2018-01-17 19:00:00 14.3 7 Noroeste 17 Noroeste 0 -- -- 46
2018-01-17 18:00:00 16 8 Norte 21 Nordeste 0 -- -- 41
2018-01-17 17:00:00 18 13 Nordeste 23 Nordeste 0 -- -- 36
2018-01-17 16:00:00 19.1 14 Norte 26 Nordeste 0 -- -- 33
2018-01-17 15:00:00 19 14 Nordeste 27 Nordeste 0 -- -- 36
2018-01-17 14:00:00 18.3 13 Nordeste 24 Nordeste 0 -- -- 44
2018-01-17 13:00:00 17.5 10 Nordeste 18 Nordeste 0 -- -- 48
2018-01-17 12:00:00 14.7 3 Norte 9 Nordeste 0 -- -- 56
2018-01-17 11:00:00 12.8 3 Norte 8 Sudoeste 0 -- -- 61
2018-01-17 10:00:00 8.1 6 Sur 12 Sudoeste 0 -- -- 73
2018-01-17 09:00:00 4 6 Sur 11 Sur 0 -- -- 86
2018-01-17 08:00:00 2.9 8 Sur 11 Sur 0 -- -- 87
2018-01-17 07:00:00 3.4 4 Sudoeste 10 Sur 0 -- -- 87
2018-01-17 06:00:00 3.9 3 Sur 12 Sudoeste 0 -- -- 85
2018-01-17 05:00:00 4 9 Sur 11 Sur 0 -- -- 84
2018-01-17 04:00:00 5.4 5 Sudoeste 8 Sur 0 -- -- 82
2018-01-17 03:00:00 5.4 6 Sur 10 Sur 0 -- -- 79
2018-01-17 02:00:00 6.6 0 Calma 10 Sur 0 -- -- 78
2018-01-17 01:00:00 7.4 7 Sur 10 Sur 0 -- -- 76
2018-01-17 00:00:00 7.7 8 Sur 11 Sur 0 -- -- 75
2018-01-16 23:00:00 9.5 9 Sudoeste 11 Sudoeste 0 -- -- 69
2018-01-16 22:00:00 11.6 5 Sur 10 Noroeste 0 -- -- 61
2018-01-16 21:00:00 12.6 8 Oeste 13 Noroeste 0 -- -- 54
2018-01-16 20:00:00 13.3 3 Noroeste 8 Norte 0 -- -- 53
2018-01-16 19:00:00 14.6 5 Noroeste 10 Noroeste 0 -- -- 51
2018-01-16 18:00:00 15.7 4 Norte 8 Noroeste 0 -- -- 45
2018-01-16 17:00:00 16.9 4 Nordeste 9 Nordeste 0 -- -- 42
2018-01-16 16:00:00 18 4 Nordeste 8 Nordeste 0 -- -- 38
2018-01-16 15:00:00 17.4 3 Este 8 Sur 0 -- -- 39
2018-01-16 14:00:00 15.2 4 Sudeste 9 Sudeste 0 -- -- 41
2018-01-16 13:00:00 12.3 3 Este 10 Nordeste 0 -- -- 48
2018-01-16 12:00:00 9.8 4 Norte 7 Nordeste 0 -- -- 52
2018-01-16 11:00:00 7.7 3 Sur 8 Sudeste 0 -- -- 63
2018-01-16 10:00:00 3.8 2 Oeste 6 Sudoeste 0 -- -- 79
2018-01-16 09:00:00 1.9 0 Calma 6 Sudoeste 0 -- -- 88
2018-01-16 08:00:00 0.8 3 Sur 9 Sudoeste 0 -- -- 86
2018-01-16 07:00:00 1.6 3 Noroeste 7 Sudoeste 0 -- -- 86
2018-01-16 06:00:00 1.6 0 Calma 10 Sur 0 -- -- 86
2018-01-16 05:00:00 1.5 5 Sur 10 Sur 0 -- -- 86
2018-01-16 04:00:00 2.6 3 Sudoeste 8 Sur 0 -- -- 86
2018-01-16 03:00:00 2.1 4 Sudoeste 9 Sur 0 -- -- 85
2018-01-16 02:00:00 2.4 5 Sur 12 Sur 0 -- -- 84
2018-01-16 01:00:00 3.7 6 Sur 10 Sur 0 -- -- 80
2018-01-16 00:00:00 4.6 5 Sur 10 Sudoeste 0 -- -- 78
2018-01-15 23:00:00 4.8 9 Sudoeste 12 Sudoeste 0 -- -- 78
2018-01-15 22:00:00 5.7 4 Sur 8 Sur 0 -- -- 76
2018-01-15 21:00:00 6.5 3 Sur 7 Sur 0 -- -- 73
2018-01-15 20:00:00 7.7 3 Sudeste 16 Sudoeste 0 -- -- 68
2018-01-15 19:00:00 9 7 Sudoeste 17 Sudoeste 0 -- -- 63
2018-01-15 18:00:00 10.4 3 Sudoeste 10 Sudoeste 0 -- -- 59
2018-01-15 17:00:00 11.1 4 Sudoeste 11 Oeste 0 -- -- 55
2018-01-15 16:00:00 12 4 Oeste 10 Noroeste 0 -- -- 54
2018-01-15 15:00:00 10.9 0 Calma 7 Oeste 0 -- -- 61
2018-01-15 14:00:00 10.3 3 Nordeste 13 Nordeste 0 -- -- 62
2018-01-15 13:00:00 9.9 5 Norte 10 Oeste 0 -- -- 66
2018-01-15 12:00:00 8.3 4 Nordeste 10 Nordeste 0 -- -- 79
2018-01-15 11:00:00 6.3 2 Nordeste 8 Noroeste 0 -- -- 88
2018-01-15 10:00:00 5.2 0 Calma 7 Noroeste 0 -- -- 91
2018-01-15 09:00:00 5 3 Noroeste 10 Noroeste 0 -- -- 91
2018-01-15 08:00:00 4.9 5 Noroeste 14 Oeste 0.2 -- -- 90
2018-01-15 07:00:00 5 10 Oeste 18 Oeste 0 -- -- 91
2018-01-15 06:00:00 5.3 0 Calma 9 Oeste 0.6 -- -- 89
2018-01-15 05:00:00 5.4 5 Sudoeste 8 Oeste 1 -- -- 90
2018-01-15 04:00:00 5.5 0 Calma 8 Sudoeste 1 -- -- 90
2018-01-15 03:00:00 5.7 0 Calma 12 Norte 0.6 -- -- 88
2018-01-15 02:00:00 6.6 9 Oeste 23 Oeste 0.2 -- -- 79
2018-01-15 01:00:00 5.6 2 Sur 7 Oeste 1.4 -- -- 91
2018-01-15 00:00:00 5.5 0 Calma 6 Oeste 0.8 -- -- 90
2018-01-14 23:00:00 5.5 3 Sudeste 6 Sudeste 1 -- -- 89
2018-01-14 22:00:00 5.9 0 Calma 14 Sudoeste 0.4 -- -- 89
2018-01-14 21:00:00 6 10 Oeste 15 Oeste 0.8 -- -- 88
2018-01-14 20:00:00 6.2 6 Oeste 10 Noroeste 1 -- -- 92
2018-01-14 19:00:00 6.5 3 Oeste 5 Oeste 1.2 -- -- 90
2018-01-14 18:00:00 7 2 Noroeste 9 Noroeste 1 -- -- 89
2018-01-14 17:00:00 8 3 Noroeste 26 Sur 1 -- -- 83
2018-01-14 16:00:00 11.1 9 Sur 24 Sur 0 -- -- 56
2018-01-14 15:00:00 11.8 6 Sudeste 14 Sudeste 0 -- -- 51
2018-01-14 14:00:00 11.2 8 Sudeste 13 Sudeste 0 -- -- 54
2018-01-14 13:00:00 10 8 Sudeste 14 Sudeste 0 -- -- 57
2018-01-14 12:00:00 8.4 7 Sudeste 11 Sudeste 0 -- -- 63
2018-01-14 11:00:00 7.2 5 Sur 7 Sur 0 -- -- 68
2018-01-14 10:00:00 6.7 3 Oeste 9 Oeste 0 -- -- 71
2018-01-14 09:00:00 6.3 4 Oeste 13 Oeste 0 -- -- 71
2018-01-14 08:00:00 4.4 4 Oeste 10 Sur 0 -- -- 76
2018-01-14 07:00:00 4.2 6 Sur 13 Sur 0 -- -- 73
2018-01-14 06:00:00 3.7 7 Sudoeste 13 Sur 0 -- -- 75
2018-01-14 05:00:00 4 9 Sur 11 Sur 0 -- -- 76
2018-01-14 04:00:00 4.8 8 Sudoeste 10 Sudoeste 0 -- -- 74
2018-01-14 03:00:00 4.4 6 Sur 11 Sudoeste 0 -- -- 78
2018-01-14 02:00:00 5 8 Sur 12 Sudoeste 0 -- -- 77
2018-01-14 01:00:00 6 3 Sur 12 Sudoeste 0 -- -- 74
2018-01-14 00:00:00 6.5 3 Sur 12 Oeste 0 -- -- 73
2018-01-13 23:00:00 6.8 4 Noroeste 10 Oeste 0 -- -- 71
2018-01-13 22:00:00 7.3 3 Sudoeste 9 Sudoeste 0 -- -- 70
2018-01-13 21:00:00 8.1 2 Noroeste 8 Norte 0 -- -- 66
2018-01-13 20:00:00 8.8 0 Calma 10 Sudeste 0 -- -- 63
2018-01-13 19:00:00 9.3 6 Sudeste 11 Sudeste 0 -- -- 63
2018-01-13 18:00:00 10.1 4 Sudeste 7 Sudeste 0 -- -- 57
2018-01-13 17:00:00 10.9 0 Calma 5 Este 0 -- -- 53
2018-01-13 16:00:00 10.9 3 Nordeste 9 Este 0 -- -- 53
2018-01-13 15:00:00 9.3 4 Noroeste 11 Noroeste 0 -- -- 54
2018-01-13 14:00:00 7.8 6 Norte 9 Norte 0 -- -- 58
2018-01-13 13:00:00 7.8 3 Nordeste 6 Nordeste 0 -- -- 54
2018-01-13 12:00:00 6.7 5 Nordeste 12 Este 0 -- -- 59
2018-01-13 11:00:00 4.8 2 Sudeste 6 Noroeste 0 -- -- 67
2018-01-13 10:00:00 2.3 3 Sur 7 Sur 0 -- -- 75
2018-01-13 09:00:00 1.7 4 Sur 6 Sudoeste 0 -- -- 76
2018-01-13 08:00:00 1.6 4 Sur 8 Sur 0 -- -- 76
2018-01-13 07:00:00 1.4 0 Calma 9 Sudoeste 0 -- -- 75
2018-01-13 06:00:00 1.2 5 Sur 10 Sudoeste 0 -- -- 77
2018-01-13 05:00:00 2.1 5 Sur 9 Sudoeste 0 -- -- 75
2018-01-13 04:00:00 3.2 3 Sur 9 Sur 0 -- -- 71
2018-01-13 03:00:00 3 5 Sur 8 Sur 0 -- -- 73
2018-01-13 02:00:00 4 4 Sur 6 Sudoeste 0 -- -- 70
2018-01-13 01:00:00 4.7 3 Sur 7 Sur 0 -- -- 69
2018-01-13 00:00:00 5 6 Sur 10 Sudoeste 0 -- -- 67
2018-01-12 23:00:00 5.3 5 Sur 8 Sur 0 -- -- 64
2018-01-12 22:00:00 5.7 6 Sur 10 Sur 0 -- -- 62
2018-01-12 21:00:00 7.7 4 Sur 6 Sur 0 -- -- 58
2018-01-12 20:00:00 9.6 0 Calma 9 Este 0 -- -- 50
2018-01-12 19:00:00 10.3 3 Nordeste 11 Nordeste 0 -- -- 48
2018-01-12 18:00:00 12.4 6 Este 12 Este 0 -- -- 43
2018-01-12 17:00:00 14.1 6 Norte 18 Norte 0 -- -- 34
2018-01-12 16:00:00 14.6 12 Norte 25 Norte 0 -- -- 32
2018-01-12 15:00:00 14.3 10 Noroeste 23 Noroeste 0 -- -- 34
2018-01-12 14:00:00 13.5 14 Noroeste 27 Noroeste 0 -- -- 36
2018-01-12 13:00:00 12.8 10 Norte 28 Noroeste 0 -- -- 40
2018-01-12 12:00:00 11.4 17 Noroeste 33 Norte 0 -- -- 44
2018-01-12 11:00:00 10.1 16 Noroeste 26 Noroeste 0 -- -- 47
2018-01-12 10:00:00 7.9 9 Noroeste 15 Norte 0 -- -- 54
2018-01-12 09:00:00 5.2 3 Oeste 13 Noroeste 0 -- -- 60
2018-01-12 08:00:00 5.3 8 Noroeste 13 Norte 0 -- -- 58
2018-01-12 07:00:00 4.8 5 Oeste 8 Noroeste 0 -- -- 59
2018-01-12 06:00:00 5.2 3 Nordeste 6 Noroeste 0 -- -- 58
2018-01-12 05:00:00 6.1 5 Noroeste 10 Noroeste 0 -- -- 55
2018-01-12 04:00:00 6.3 3 Nordeste 9 Oeste 0 -- -- 56
2018-01-12 03:00:00 7.7 6 Oeste 13 Oeste 0 -- -- 52
2018-01-12 02:00:00 7.5 7 Oeste 15 Oeste 0 -- -- 53
2018-01-12 01:00:00 6.8 6 Oeste 10 Oeste 0 -- -- 58
2018-01-12 00:00:00 7.1 6 Oeste 13 Oeste 0 -- -- 56
2018-01-11 23:00:00 7.4 4 Oeste 17 Oeste 0 -- -- 55
2018-01-11 22:00:00 7.7 2 Sudoeste 11 Oeste 0 -- -- 56
2018-01-11 21:00:00 8 5 Oeste 22 Oeste 0 -- -- 55
2018-01-11 20:00:00 8.8 10 Oeste 21 Sudoeste 0 -- -- 52
2018-01-11 19:00:00 9.1 4 Sudoeste 19 Oeste 0 -- -- 51
2018-01-11 18:00:00 9 7 Oeste 43 Noroeste 0 -- -- 54
2018-01-11 17:00:00 10.4 21 Oeste 43 Oeste 0 -- -- 50
2018-01-11 16:00:00 10.4 14 Norte 45 Norte 0.2 -- -- 54
2018-01-11 15:00:00 8.5 21 Noroeste 58 Norte 0 -- -- 61
2018-01-11 14:00:00 10.9 22 Oeste 45 Noroeste 0 -- -- 50
2018-01-11 13:00:00 10.5 20 Oeste 52 Noroeste 0 -- -- 58
2018-01-11 12:00:00 11 28 Noroeste 58 Noroeste 0 -- -- 54
2018-01-11 11:00:00 10.8 22 Noroeste 48 Oeste 0 -- -- 53
2018-01-11 10:00:00 10.1 20 Noroeste 38 Noroeste 0 -- -- 51
2018-01-11 09:00:00 8.2 8 Oeste 22 Oeste 0 -- -- 54
2018-01-11 08:00:00 7.9 10 Noroeste 34 Noroeste 0 -- -- 54
2018-01-11 07:00:00 8.1 11 Noroeste 31 Noroeste 0 -- -- 52
2018-01-11 06:00:00 8.4 12 Noroeste 35 Noroeste 0 -- -- 54
2018-01-11 05:00:00 9.2 14 Oeste 34 Noroeste 0 -- -- 53
2018-01-11 04:00:00 8.9 4 Noroeste 16 Noroeste 0 -- -- 55
2018-01-11 03:00:00 9.2 3 Sudoeste 15 Oeste 0 -- -- 59
2018-01-11 02:00:00 10.6 8 Sudoeste 19 Sudoeste 0 -- -- 54
2018-01-11 01:00:00 11 5 Sudoeste 24 Noroeste 0 -- -- 52
2018-01-11 00:00:00 11.9 15 Noroeste 35 Noroeste 0 -- -- 49
2018-01-10 23:00:00 10.6 5 Sudeste 14 Nordeste 0 -- -- 64
2018-01-10 22:00:00 9.4 2 Nordeste 10 Oeste 0 -- -- 58
2018-01-10 21:00:00 11.6 8 Oeste 17 Sur 0 -- -- 52
2018-01-10 20:00:00 12.4 9 Sudoeste 18 Oeste 0 -- -- 48
2018-01-10 19:00:00 12.4 9 Oeste 18 Sudoeste 0 -- -- 47
2018-01-10 18:00:00 12.7 9 Oeste 33 Noroeste 0 -- -- 47
2018-01-10 17:00:00 13.9 16 Oeste 30 Oeste 0 -- -- 43
2018-01-10 16:00:00 14.9 16 Oeste 38 Oeste 0 -- -- 42
2018-01-10 15:00:00 14.9 17 Noroeste 35 Noroeste 0 -- -- 47
2018-01-10 14:00:00 14.8 15 Noroeste 29 Norte 0 -- -- 49
2018-01-10 13:00:00 12.9 5 Noroeste 9 Oeste 0 -- -- 62
2018-01-10 12:00:00 9.7 3 Norte 9 Norte 0 -- -- 72
2018-01-10 11:00:00 7.1 3 Noroeste 10 Noroeste 0 -- -- 79
2018-01-10 10:00:00 6.3 4 Noroeste 8 Noroeste 0 -- -- 83
2018-01-10 09:00:00 4.6 5 Oeste 11 Noroeste 0 -- -- 90
2018-01-10 08:00:00 4.9 8 Oeste 10 Oeste 0 -- -- 88
2018-01-10 07:00:00 5.2 5 Oeste 10 Noroeste 0 -- -- 89
2018-01-10 06:00:00 5.1 5 Noroeste 9 Noroeste 0 -- -- 92
2018-01-10 05:00:00 5 4 Noroeste 12 Noroeste 0 -- -- 91
2018-01-10 04:00:00 4.8 9 Noroeste 14 Oeste 0 -- -- 91
2018-01-10 03:00:00 5.2 0 Calma 6 Sur 0.2 -- -- 88
2018-01-10 02:00:00 5.4 3 Sudeste 12 Sudeste 1 -- -- 87
2018-01-10 01:00:00 5.6 3 Sur 6 Sur 0.4 -- -- 85
2018-01-10 00:00:00 6 0 Calma 5 Sur 0.2 -- -- 81
2018-01-09 23:00:00 6.4 4 Sur 8 Sur 0 -- -- 73
2018-01-09 22:00:00 6.5 5 Sur 10 Sur 0 -- -- 72
2018-01-09 21:00:00 6.4 6 Sur 9 Sur 0 -- -- 75
2018-01-09 20:00:00 7.6 4 Sur 11 Sudoeste 0 -- -- 69
2018-01-09 19:00:00 8.2 2 Sur 5 Sudoeste 0 -- -- 65
2018-01-09 18:00:00 9 3 Sudoeste 6 Sudeste 0 -- -- 62
2018-01-09 17:00:00 9.8 5 Sur 9 Sudeste 0 -- -- 58
2018-01-09 16:00:00 10.3 0 Calma 5 Nordeste 0 -- -- 55
2018-01-09 15:00:00 10.2 3 Nordeste 6 Nordeste 0 -- -- 53
2018-01-09 14:00:00 9.6 4 Nordeste 8 Nordeste 0 -- -- 57
2018-01-09 13:00:00 8.7 4 Nordeste 8 Noroeste 0 -- -- 59
2018-01-09 12:00:00 7.6 3 Nordeste 6 Norte 0 -- -- 61
2018-01-09 11:00:00 5 3 Noroeste 5 Noroeste 0 -- -- 71
2018-01-09 10:00:00 2.2 0 Calma 5 Sur 0 -- -- 81
2018-01-09 09:00:00 -0.5 5 Sur 8 Sudoeste 0 -- -- 87
2018-01-09 08:00:00 -0.7 4 Sur 8 Sudoeste 0 -- -- 86
2018-01-09 07:00:00 -0.1 6 Sur 8 Sur 0 -- -- 84
2018-01-09 06:00:00 0.2 4 Oeste 9 Sudoeste 0 -- -- 88
2018-01-09 05:00:00 0.1 5 Sur 8 Sudoeste 0 -- -- 85
2018-01-09 04:00:00 0.8 5 Sur 8 Oeste 0 -- -- 83
2018-01-09 03:00:00 1.4 0 Calma 7 Sudoeste 0 -- -- 81
2018-01-09 02:00:00 1.3 6 Sur 8 Sur 0 -- -- 82
2018-01-09 01:00:00 1.8 5 Sur 9 Sur 0 -- -- 81
2018-01-09 00:00:00 2.4 5 Sur 9 Sur 0 -- -- 79
2018-01-08 23:00:00 2.9 5 Sur 10 Sur 0 -- -- 79
2018-01-08 22:00:00 4 6 Sudoeste 9 Sudoeste 0 -- -- 76
2018-01-08 21:00:00 4.2 4 Sudeste 8 Sur 0 -- -- 75
2018-01-08 20:00:00 6.3 6 Sur 9 Sur 0 -- -- 67
2018-01-08 19:00:00 8.1 4 Sur 5 Sur 0 -- -- 60
2018-01-08 18:00:00 8.9 2 Este 6 Nordeste 0 -- -- 54
2018-01-08 17:00:00 10.4 0 Calma 10 Este 0 -- -- 49
2018-01-08 16:00:00 11 8 Sudeste 13 Sudeste 0 -- -- 48
2018-01-08 15:00:00 11.3 4 Sur 12 Sudeste 0 -- -- 48
2018-01-08 14:00:00 10 4 Nordeste 12 Este 0 -- -- 56
2018-01-08 13:00:00 8.9 4 Nordeste 14 Este 0 -- -- 59
2018-01-08 12:00:00 6.8 0 Calma 5 Nordeste 0 -- -- 64
2018-01-08 11:00:00 5.1 3 Sudeste 9 Sur 0 -- -- 70
2018-01-08 10:00:00 3 5 Sur 9 Sur 0 -- -- 77
2018-01-08 09:00:00 0.2 4 Sur 8 Sudeste 0 -- -- 86
2018-01-08 08:00:00 -1 9 Sudeste 12 Sur 0 -- -- 86
2018-01-08 07:00:00 -0.5 6 Sur 8 Sur 0 -- -- 86
2018-01-08 06:00:00 -0.1 5 Sur 7 Sudoeste 0 -- -- 87
2018-01-08 05:00:00 0.2 3 Sur 6 Sudoeste 0 -- -- 84
2018-01-08 04:00:00 0.3 4 Sur 8 Sudoeste 0 -- -- 85
2018-01-08 03:00:00 0.6 4 Sur 8 Sur 0 -- -- 84
2018-01-08 02:00:00 0.9 5 Sur 11 Sur 0 -- -- 82
2018-01-08 01:00:00 1 5 Sur 8 Sur 0 -- -- 83
2018-01-08 00:00:00 1.7 5 Sur 8 Sur 0 -- -- 81
2018-01-07 23:00:00 2 5 Sur 8 Sur 0 -- -- 81
2018-01-07 22:00:00 3.1 6 Sur 8 Sur 0 -- -- 78
2018-01-07 21:00:00 5.4 3 Sudoeste 8 Oeste 0 -- -- 68
2018-01-07 20:00:00 6.4 0 Calma 8 Sudeste 0 -- -- 61
2018-01-07 19:00:00 7.4 3 Sudeste 14 Sudeste 0 -- -- 60
2018-01-07 18:00:00 8.7 6 Sudeste 21 Sudeste 0 -- -- 51
2018-01-07 17:00:00 9.6 11 Sudeste 22 Sudeste 0 -- -- 49
2018-01-07 16:00:00 9.9 14 Sudeste 26 Sudeste 0 -- -- 48
2018-01-07 15:00:00 10.1 9 Nordeste 18 Este 0 -- -- 54
2018-01-07 14:00:00 9.3 8 Nordeste 17 Nordeste 0 -- -- 57
2018-01-07 13:00:00 9.2 5 Este 15 Sudoeste 0 -- -- 57
2018-01-07 12:00:00 7.4 5 Este 10 Este 0 -- -- 69
2018-01-07 11:00:00 5.9 2 Nordeste 10 Sudeste 0 -- -- 76
2018-01-07 10:00:00 5.5 4 Sur 13 Sudeste 0 -- -- 71
2018-01-07 09:00:00 3.2 5 Sudoeste 9 Sur 0 -- -- 85
2018-01-07 08:00:00 2.5 3 Oeste 10 Sur 0 -- -- 89
2018-01-07 07:00:00 3.3 3 Sudeste 6 Sudeste 0 -- -- 85
2018-01-07 06:00:00 4.3 0 Calma 5 Norte 0.2 -- -- 83
2018-01-07 05:00:00 5.4 0 Calma 11 Sudeste 0 -- -- 80
2018-01-07 04:00:00 5.3 5 Sudeste 13 Sur 0 -- -- 81
2018-01-07 03:00:00 5.1 4 Sur 8 Sudeste 0 -- -- 82
2018-01-07 02:00:00 4.9 6 Sur 9 Sur 0 -- -- 81
2018-01-07 01:00:00 5.1 0 Calma 12 Sur 0 -- -- 80
2018-01-07 00:00:00 4.8 7 Sur 11 Sudeste 0 -- -- 81
2018-01-06 23:00:00 4.9 7 Sur 12 Sur 0 -- -- 80
2018-01-06 22:00:00 4.6 3 Nordeste 9 Noroeste 0 -- -- 80
2018-01-06 21:00:00 5.4 8 Noroeste 10 Noroeste 0 -- -- 77
2018-01-06 20:00:00 5.7 6 Noroeste 14 Noroeste 0 -- -- 82
2018-01-06 19:00:00 6.2 3 Noroeste 16 Noroeste 0.2 -- -- 91
2018-01-06 18:00:00 6.5 9 Noroeste 40 Noroeste 4 -- -- 90
2018-01-06 17:00:00 9.9 6 Noroeste 11 Noroeste 0 -- -- 90
2018-01-06 16:00:00 10 4 Norte 9 Nordeste 0 -- -- 90
2018-01-06 15:00:00 9.2 2 Sur 26 Sur 5.2 -- -- 89
2018-01-06 14:00:00 9.8 4 Norte 8 Nordeste 0 -- -- 75
2018-01-06 13:00:00 9 4 Noroeste 15 Noroeste 0 -- -- 79
2018-01-06 12:00:00 6.8 5 Noroeste 12 Noroeste 0 -- -- 74
2018-01-06 11:00:00 5.5 2 Norte 6 Sudeste 0 -- -- 77
2018-01-06 10:00:00 4.7 2 Este 7 Sudoeste 0 -- -- 79
2018-01-06 09:00:00 3.1 4 Sur 6 Sudoeste 0 -- -- 81
2018-01-06 08:00:00 2.7 2 Sur 5 Sudoeste 0 -- -- 81
2018-01-06 07:00:00 3 0 Calma 5 Sudoeste 0 -- -- 80
2018-01-06 06:00:00 3 0 Calma 5 Sur 0 -- -- 80
2018-01-06 05:00:00 3.2 3 Sur 14 Oeste 0 -- -- 81
2018-01-06 04:00:00 3.5 8 Oeste 13 Oeste 0 -- -- 80
2018-01-06 03:00:00 3.7 0 Calma 8 Sur 0 -- -- 78
2018-01-06 02:00:00 4.8 4 Sudoeste 8 Sudoeste 0 -- -- 75
2018-01-06 01:00:00 5.8 5 Sudoeste 10 Sudeste 0 -- -- 73
2018-01-06 00:00:00 6.2 3 Sudeste 10 Sur 0 -- -- 70
2018-01-05 23:00:00 7.5 4 Sudoeste 13 Sur 0 -- -- 66
2018-01-05 22:00:00 8.9 10 Sur 17 Sur 0 -- -- 61
2018-01-05 21:00:00 11.4 3 Oeste 9 Noroeste 0 -- -- 54
2018-01-05 20:00:00 11.8 6 Noroeste 12 Noroeste 0 -- -- 53
2018-01-05 19:00:00 12.7 8 Noroeste 16 Norte 0 -- -- 51
2018-01-05 18:00:00 13.9 5 Norte 22 Noroeste 0 -- -- 49
2018-01-05 17:00:00 16.1 14 Noroeste 22 Norte 0 -- -- 44
2018-01-05 16:00:00 17.3 10 Noroeste 19 Oeste 0 -- -- 41
2018-01-05 15:00:00 17.8 10 Noroeste 19 Noroeste 0 -- -- 40
2018-01-05 14:00:00 17.6 5 Oeste 15 Oeste 0 -- -- 42
2018-01-05 13:00:00 16.6 4 Sudeste 9 Sur 0 -- -- 46
2018-01-05 12:00:00 14.6 3 Sudeste 7 Sudeste 0 -- -- 53
2018-01-05 11:00:00 11.8 4 Sudeste 8 Oeste 0 -- -- 60
2018-01-05 10:00:00 8.7 3 Sur 11 Sur 0 -- -- 69
2018-01-05 09:00:00 5.2 0 Calma 9 Sur 0 -- -- 83
2018-01-05 08:00:00 5.3 4 Sur 11 Sur 0 -- -- 82
2018-01-05 07:00:00 4.7 9 Sur 12 Sur 0 -- -- 83
2018-01-05 06:00:00 4.8 6 Sudoeste 9 Sur 0 -- -- 82
2018-01-05 05:00:00 6.7 2 Oeste 11 Sur 0 -- -- 81
2018-01-05 04:00:00 7 5 Sur 12 Sur 0 -- -- 78
2018-01-05 03:00:00 7.2 6 Sur 12 Sur 0 -- -- 79
2018-01-05 02:00:00 7.8 8 Sur 12 Sur 0 -- -- 79
2018-01-05 01:00:00 8.9 6 Sudoeste 12 Sudoeste 0 -- -- 79
2018-01-05 00:00:00 10.5 0 Calma 10 Noroeste 0 -- -- 74
2018-01-04 23:00:00 10 3 Norte 8 Sudoeste 0 -- -- 78
2018-01-04 22:00:00 11.9 2 Noroeste 8 Noroeste 0 -- -- 72
2018-01-04 21:00:00 12.4 5 Norte 11 Norte 0 -- -- 69
2018-01-04 20:00:00 14.1 4 Norte 13 Este 0 -- -- 63
2018-01-04 19:00:00 15.2 3 Nordeste 9 Nordeste 0 -- -- 59
2018-01-04 18:00:00 16.9 5 Nordeste 17 Este 0 -- -- 54
2018-01-04 17:00:00 19.9 8 Nordeste 22 Este 0 -- -- 45
2018-01-04 16:00:00 21.6 9 Este 19 Nordeste 0 -- -- 44
2018-01-04 15:00:00 21.7 3 Nordeste 11 Nordeste 0 -- -- 43
2018-01-04 14:00:00 19.5 4 Nordeste 10 Norte 0 -- -- 49
2018-01-04 13:00:00 17.2 5 Nordeste 12 Nordeste 0 -- -- 56
2018-01-04 12:00:00 15.5 4 Nordeste 10 Norte 0 -- -- 60
2018-01-04 11:00:00 12.9 6 Noroeste 10 Oeste 0 -- -- 70
2018-01-04 10:00:00 9.6 0 Calma 9 Sur 0 -- -- 77
2018-01-04 09:00:00 7.7 7 Sur 14 Sur 0 -- -- 84
2018-01-04 08:00:00 6.1 8 Sur 11 Sur 0 -- -- 86
2018-01-04 07:00:00 6.9 7 Sur 12 Sur 0 -- -- 84
2018-01-04 06:00:00 7.5 5 Sur 9 Sur 0 -- -- 83
2018-01-04 05:00:00 7.1 6 Sur 12 Sur 0 -- -- 84
2018-01-04 04:00:00 8.2 5 Sur 10 Sur 0 -- -- 80
2018-01-04 03:00:00 9.3 4 Sudoeste 11 Sur 0 -- -- 80
2018-01-04 02:00:00 9.1 3 Sudoeste 12 Sudoeste 0 -- -- 81
2018-01-04 01:00:00 10.7 8 Sur 15 Sudoeste 0 -- -- 73
2018-01-04 00:00:00 11.4 6 Noroeste 11 Noroeste 0 -- -- 76
2018-01-03 23:00:00 12 7 Norte 15 Norte 0 -- -- 74
2018-01-03 22:00:00 13 0 Calma 12 Noroeste 0 -- -- 71
2018-01-03 21:00:00 14 9 Noroeste 14 Noroeste 0 -- -- 67
2018-01-03 20:00:00 14.5 0 Calma 10 Noroeste 0 -- -- 61
2018-01-03 19:00:00 16.3 7 Oeste 13 Nordeste 0 -- -- 57
2018-01-03 18:00:00 17 3 Este 12 Nordeste 0 -- -- 56
2018-01-03 17:00:00 18.7 9 Nordeste 28 Nordeste 0 -- -- 51
2018-01-03 16:00:00 19.9 19 Nordeste 30 Nordeste 0 -- -- 48
2018-01-03 15:00:00 20.6 12 Nordeste 21 Norte 0 -- -- 46
2018-01-03 14:00:00 19.4 3 Este 9 Este 0 -- -- 47
2018-01-03 13:00:00 17.1 3 Oeste 9 Sur 0 -- -- 51
2018-01-03 12:00:00 15.2 4 Sur 8 Sudeste 0 -- -- 57
2018-01-03 11:00:00 12.7 5 Sudeste 7 Sur 0 -- -- 62
2018-01-03 10:00:00 10.4 3 Noroeste 5 Noroeste 0 -- -- 70
2018-01-03 09:00:00 9 4 Sudoeste 8 Sudoeste 0 -- -- 78
2018-01-03 08:00:00 8.1 0 Calma 8 Sur 0 -- -- 79
2018-01-03 07:00:00 7.2 6 Sur 9 Sudoeste 0 -- -- 74
2018-01-03 06:00:00 7.7 2 Oeste 9 Noroeste 0 -- -- 72
2018-01-03 05:00:00 10.3 6 Noroeste 13 Noroeste 0 -- -- 65
2018-01-03 04:00:00 10 10 Oeste 15 Oeste 0 -- -- 65
2018-01-03 03:00:00 8.9 0 Calma 11 Sur 0 -- -- 67
2018-01-03 02:00:00 8.2 6 Sur 10 Sur 0 -- -- 70
2018-01-03 01:00:00 9.7 3 Oeste 13 Sudoeste 0 -- -- 65
2018-01-03 00:00:00 10.4 4 Sur 8 Oeste 0 -- -- 64
2018-01-02 23:00:00 11.6 3 Sur 6 Noroeste 0 -- -- 60
2018-01-02 22:00:00 13.2 2 Noroeste 8 Noroeste 0 -- -- 56
2018-01-02 21:00:00 13.6 0 Calma 13 Noroeste 0 -- -- 55
2018-01-02 20:00:00 14.3 6 Noroeste 9 Noroeste 0 -- -- 52
2018-01-02 19:00:00 14.7 6 Noroeste 10 Norte 0 -- -- 49
2018-01-02 18:00:00 15.6 5 Noroeste 21 Norte 0 -- -- 46
2018-01-02 17:00:00 17 12 Norte 21 Norte 0 -- -- 42
2018-01-02 16:00:00 18 14 Nordeste 26 Nordeste 0 -- -- 38
2018-01-02 15:00:00 19.2 13 Norte 32 Norte 0 -- -- 30
2018-01-02 14:00:00 18.5 17 Noroeste 30 Noroeste 0 -- -- 30
2018-01-02 13:00:00 17.1 16 Noroeste 40 Noroeste 0 -- -- 34
2018-01-02 12:00:00 15.5 14 Noroeste 25 Noroeste 0 -- -- 40
2018-01-02 11:00:00 11.5 6 Nordeste 10 Norte 0 -- -- 55
2018-01-02 10:00:00 6.9 6 Sur 12 Sudoeste 0 -- -- 60
2018-01-02 09:00:00 3.6 7 Sur 12 Sudoeste 0 -- -- 71
2018-01-02 08:00:00 3.4 8 Sur 11 Sur 0 -- -- 71
2018-01-02 07:00:00 4 6 Sur 10 Sur 0 -- -- 68
2018-01-02 06:00:00 5.5 6 Sur 13 Sudoeste 0 -- -- 61
2018-01-02 05:00:00 5.4 9 Sur 13 Sur 0 -- -- 61
2018-01-02 04:00:00 6.9 7 Sur 10 Sur 0 -- -- 56
2018-01-02 03:00:00 7.3 4 Sudoeste 9 Sur 0 -- -- 55
2018-01-02 02:00:00 8 5 Sur 9 Sur 0 -- -- 52
2018-01-02 01:00:00 9.8 3 Sur 8 Sur 0 -- -- 46
2018-01-02 00:00:00 10.3 3 Nordeste 13 Oeste 0 -- -- 47
2018-01-01 23:00:00 11.8 10 Oeste 28 Oeste 0 -- -- 41
2018-01-01 22:00:00 12.3 15 Noroeste 28 Noroeste 0 -- -- 39
2018-01-01 21:00:00 10.9 4 Noroeste 19 Norte 0 -- -- 33
2018-01-01 20:00:00 12 6 Noroeste 15 Noroeste 0 -- -- 28
2018-01-01 19:00:00 13.2 8 Oeste 17 Oeste 0 -- -- 22
2018-01-01 18:00:00 15 9 Oeste 17 Noroeste 0 -- -- 17
2018-01-01 17:00:00 16.7 14 Noroeste 33 Noroeste 0 -- -- 15
2018-01-01 16:00:00 18.1 16 Noroeste 32 Noroeste 0 -- -- 14
2018-01-01 15:00:00 19.2 11 Noroeste 21 Oeste 0 -- -- 12
2018-01-01 14:00:00 16.9 8 Sudeste 12 Sudeste 0 -- -- 31
2018-01-01 13:00:00 14.3 5 Este 12 Este 0 -- -- 43
2018-01-01 12:00:00 11.3 4 Noroeste 14 Norte 0 -- -- 52
2018-01-01 11:00:00 8 10 Noroeste 15 Oeste 0 -- -- 58
2018-01-01 10:00:00 6.8 6 Sur 10 Sur 0 -- -- 58
2018-01-01 09:00:00 5 7 Sur 11 Sur 0 -- -- 68
2018-01-01 08:00:00 5.3 6 Sur 13 Sur 0 -- -- 68
2018-01-01 07:00:00 7.7 5 Oeste 15 Oeste 0 -- -- 62
2018-01-01 06:00:00 7.2 9 Oeste 13 Oeste 0 -- -- 64
2018-01-01 05:00:00 8.6 0 Calma 12 Noroeste 0 -- -- 59
2018-01-01 04:00:00 9.6 9 Oeste 12 Oeste 0 -- -- 59
2018-01-01 03:00:00 10.7 8 Oeste 14 Oeste 0 -- -- 55
2018-01-01 02:00:00 11.3 6 Oeste 18 Noroeste 0 -- -- 53
2018-01-01 01:00:00 12.4 7 Oeste 21 Noroeste 0 -- -- 52
2018-01-01 00:00:00 13.8 16 Noroeste 36 Noroeste 0 -- -- 48
2017-12-31 23:00:00 14.9 18 Noroeste 42 Noroeste 0 -- -- 57
2017-12-31 22:00:00 14.3 11 Noroeste 25 Oeste 0 -- -- 57
2017-12-31 21:00:00 13.5 4 Oeste 17 Noroeste 0 -- -- 55
2017-12-31 20:00:00 14.4 9 Oeste 18 Oeste 0 -- -- 52
2017-12-31 19:00:00 14.5 2 Noroeste 21 Oeste 0 -- -- 51
2017-12-31 18:00:00 15.4 8 Oeste 19 Oeste 0 -- -- 51
2017-12-31 17:00:00 16.1 6 Noroeste 31 Noroeste 0 -- -- 52
2017-12-31 16:00:00 15.6 5 Sur 9 Sur 0 -- -- 48
2017-12-31 15:00:00 14.7 2 Sur 8 Sur 0 -- -- 50
2017-12-31 14:00:00 13.5 0 Calma 4 Noroeste 0 -- -- 53
2017-12-31 13:00:00 12.1 3 Noroeste 8 Norte 0 -- -- 59
2017-12-31 12:00:00 11.3 4 Norte 9 Oeste 0 -- -- 59
2017-12-31 11:00:00 8.7 5 Noroeste 12 Noroeste 0 -- -- 63
2017-12-31 10:00:00 6.3 6 Noroeste 9 Noroeste 0 -- -- 74
2017-12-31 09:00:00 5.6 2 Sudeste 9 Noroeste 0 -- -- 77
2017-12-31 08:00:00 5.4 7 Oeste 11 Oeste 0 -- -- 77
2017-12-31 07:00:00 5.2 0 Calma 6 Sur 0 -- -- 81
2017-12-31 06:00:00 5.7 0 Calma 9 Sudoeste 0 -- -- 79
2017-12-31 05:00:00 6.8 3 Sudoeste 8 Sur 0 -- -- 80
2017-12-31 04:00:00 6.4 4 Sur 8 Sur 0 -- -- 82
2017-12-31 03:00:00 6.6 6 Sur 8 Sur 0 -- -- 81
2017-12-31 02:00:00 8.2 5 Sur 8 Sudoeste 0 -- -- 79
2017-12-31 01:00:00 8.7 4 Sudoeste 8 Sur 0 -- -- 77